sensor_id;sensor_type;location;lat;lon;timestamp;pressure;altitude;pressure_sealevel;temperature
68588;BMP180;55560;52.174;20.996;2023-12-20T00:01:47;99654.40;;;6.50
68588;BMP180;55560;52.174;20.996;2023-12-20T00:04:15;99659.80;;;6.50
68588;BMP180;55560;52.174;20.996;2023-12-20T00:06:43;99656.60;;;6.54
68588;BMP180;55560;52.174;20.996;2023-12-20T00:09:11;99649.80;;;6.60
68588;BMP180;55560;52.174;20.996;2023-12-20T00:11:39;99647.40;;;6.58
68588;BMP180;55560;52.174;20.996;2023-12-20T00:14:09;99637.80;;;6.52
68588;BMP180;55560;52.174;20.996;2023-12-20T00:16:39;99640.60;;;6.60
68588;BMP180;55560;52.174;20.996;2023-12-20T00:19:06;99638.40;;;6.60
68588;BMP180;55560;52.174;20.996;2023-12-20T00:21:35;99641.40;;;6.60
68588;BMP180;55560;52.174;20.996;2023-12-20T00:24:04;99637.20;;;6.60
68588;BMP180;55560;52.174;20.996;2023-12-20T00:26:33;99640.60;;;6.60
68588;BMP180;55560;52.174;20.996;2023-12-20T00:29:02;99645.80;;;6.60
68588;BMP180;55560;52.174;20.996;2023-12-20T00:31:30;99642.80;;;6.60
68588;BMP180;55560;52.174;20.996;2023-12-20T00:33:58;99632.80;;;6.60
68588;BMP180;55560;52.174;20.996;2023-12-20T00:36:26;99634.80;;;6.60
68588;BMP180;55560;52.174;20.996;2023-12-20T00:38:54;99636.20;;;6.62
68588;BMP180;55560;52.174;20.996;2023-12-20T00:41:23;99632.60;;;6.62
68588;BMP180;55560;52.174;20.996;2023-12-20T00:43:51;99634.00;;;6.66
68588;BMP180;55560;52.174;20.996;2023-12-20T00:46:19;99631.20;;;6.70
68588;BMP180;55560;52.174;20.996;2023-12-20T00:48:47;99620.20;;;6.70
68588;BMP180;55560;52.174;20.996;2023-12-20T00:51:15;99618.60;;;6.70
68588;BMP180;55560;52.174;20.996;2023-12-20T00:53:43;99616.80;;;6.70
68588;BMP180;55560;52.174;20.996;2023-12-20T00:56:11;99615.60;;;6.70
68588;BMP180;55560;52.174;20.996;2023-12-20T00:58:39;99614.40;;;6.70
68588;BMP180;55560;52.174;20.996;2023-12-20T01:01:07;99611.00;;;6.70
68588;BMP180;55560;52.174;20.996;2023-12-20T01:03:35;99613.20;;;6.70
68588;BMP180;55560;52.174;20.996;2023-12-20T01:06:04;99609.00;;;6.70
68588;BMP180;55560;52.174;20.996;2023-12-20T01:08:33;99601.80;;;6.70
68588;BMP180;55560;52.174;20.996;2023-12-20T01:11:06;99604.80;;;6.70
68588;BMP180;55560;52.174;20.996;2023-12-20T01:13:35;99604.00;;;6.70
68588;BMP180;55560;52.174;20.996;2023-12-20T01:16:03;99601.60;;;6.70
68588;BMP180;55560;52.174;20.996;2023-12-20T01:18:31;99604.60;;;6.70
68588;BMP180;55560;52.174;20.996;2023-12-20T01:21:03;99605.00;;;6.70
68588;BMP180;55560;52.174;20.996;2023-12-20T01:23:32;99602.20;;;6.70
68588;BMP180;55560;52.174;20.996;2023-12-20T01:26:00;99601.20;;;6.70
68588;BMP180;55560;52.174;20.996;2023-12-20T01:28:28;99596.40;;;6.70
68588;BMP180;55560;52.174;20.996;2023-12-20T01:30:57;99598.80;;;6.70
68588;BMP180;55560;52.174;20.996;2023-12-20T01:33:25;99595.20;;;6.70
68588;BMP180;55560;52.174;20.996;2023-12-20T01:35:53;99595.40;;;6.70
68588;BMP180;55560;52.174;20.996;2023-12-20T01:38:21;99589.60;;;6.70
68588;BMP180;55560;52.174;20.996;2023-12-20T01:40:49;99585.00;;;6.70
68588;BMP180;55560;52.174;20.996;2023-12-20T01:43:17;99582.20;;;6.70
68588;BMP180;55560;52.174;20.996;2023-12-20T01:45:46;99584.40;;;6.70
68588;BMP180;55560;52.174;20.996;2023-12-20T01:48:16;99584.80;;;6.70
68588;BMP180;55560;52.174;20.996;2023-12-20T01:50:45;99578.20;;;6.70
68588;BMP180;55560;52.174;20.996;2023-12-20T01:53:13;99581.00;;;6.70
68588;BMP180;55560;52.174;20.996;2023-12-20T01:55:42;99573.00;;;6.70
68588;BMP180;55560;52.174;20.996;2023-12-20T01:58:11;99573.40;;;6.70
68588;BMP180;55560;52.174;20.996;2023-12-20T02:00:40;99574.00;;;6.70
68588;BMP180;55560;52.174;20.996;2023-12-20T02:03:08;99570.40;;;6.70
68588;BMP180;55560;52.174;20.996;2023-12-20T02:05:37;99568.40;;;6.68
68588;BMP180;55560;52.174;20.996;2023-12-20T02:08:06;99566.00;;;6.60
68588;BMP180;55560;52.174;20.996;2023-12-20T02:10:35;99567.60;;;6.60
68588;BMP180;55560;52.174;20.996;2023-12-20T02:13:04;99556.40;;;6.60
68588;BMP180;55560;52.174;20.996;2023-12-20T02:15:32;99556.60;;;6.60
68588;BMP180;55560;52.174;20.996;2023-12-20T02:18:00;99556.00;;;6.60
68588;BMP180;55560;52.174;20.996;2023-12-20T02:20:28;99550.60;;;6.60
68588;BMP180;55560;52.174;20.996;2023-12-20T02:22:56;99555.00;;;6.60
68588;BMP180;55560;52.174;20.996;2023-12-20T02:25:24;99554.40;;;6.60
68588;BMP180;55560;52.174;20.996;2023-12-20T02:27:52;99551.40;;;6.60
68588;BMP180;55560;52.174;20.996;2023-12-20T02:30:20;99547.60;;;6.60
68588;BMP180;55560;52.174;20.996;2023-12-20T02:32:50;99548.00;;;6.60
68588;BMP180;55560;52.174;20.996;2023-12-20T02:35:18;99540.20;;;6.60
68588;BMP180;55560;52.174;20.996;2023-12-20T02:37:46;99533.60;;;6.64
68588;BMP180;55560;52.174;20.996;2023-12-20T02:40:14;99537.80;;;6.70
68588;BMP180;55560;52.174;20.996;2023-12-20T02:42:42;99535.20;;;6.70
68588;BMP180;55560;52.174;20.996;2023-12-20T02:45:10;99527.40;;;6.70
68588;BMP180;55560;52.174;20.996;2023-12-20T02:47:38;99526.60;;;6.70
68588;BMP180;55560;52.174;20.996;2023-12-20T02:50:07;99524.00;;;6.70
68588;BMP180;55560;52.174;20.996;2023-12-20T02:52:35;99533.80;;;6.70
68588;BMP180;55560;52.174;20.996;2023-12-20T02:55:03;99529.00;;;6.70
68588;BMP180;55560;52.174;20.996;2023-12-20T02:57:31;99518.40;;;6.70
68588;BMP180;55560;52.174;20.996;2023-12-20T03:00:01;99521.00;;;6.74
68588;BMP180;55560;52.174;20.996;2023-12-20T03:02:29;99522.00;;;6.78
68588;BMP180;55560;52.174;20.996;2023-12-20T03:04:57;99521.60;;;6.72
68588;BMP180;55560;52.174;20.996;2023-12-20T03:07:24;99522.40;;;6.76
68588;BMP180;55560;52.174;20.996;2023-12-20T03:09:53;99526.40;;;6.76
68588;BMP180;55560;52.174;20.996;2023-12-20T03:12:40;99523.40;;;6.78
68588;BMP180;55560;52.174;20.996;2023-12-20T03:15:09;99513.20;;;6.76
68588;BMP180;55560;52.174;20.996;2023-12-20T03:17:38;99512.00;;;6.80
68588;BMP180;55560;52.174;20.996;2023-12-20T03:20:07;99504.80;;;6.70
68588;BMP180;55560;52.174;20.996;2023-12-20T03:22:35;99496.80;;;6.70
68588;BMP180;55560;52.174;20.996;2023-12-20T03:25:04;99508.40;;;6.70
68588;BMP180;55560;52.174;20.996;2023-12-20T03:27:32;99516.40;;;6.70
68588;BMP180;55560;52.174;20.996;2023-12-20T03:30:00;99515.40;;;6.70
68588;BMP180;55560;52.174;20.996;2023-12-20T03:32:28;99510.40;;;6.70
68588;BMP180;55560;52.174;20.996;2023-12-20T03:34:56;99506.60;;;6.70
68588;BMP180;55560;52.174;20.996;2023-12-20T03:37:24;99498.80;;;6.72
68588;BMP180;55560;52.174;20.996;2023-12-20T03:39:52;99505.60;;;6.72
68588;BMP180;55560;52.174;20.996;2023-12-20T03:42:20;99500.40;;;6.72
68588;BMP180;55560;52.174;20.996;2023-12-20T03:44:48;99497.80;;;6.72
68588;BMP180;55560;52.174;20.996;2023-12-20T03:47:16;99498.00;;;6.70
68588;BMP180;55560;52.174;20.996;2023-12-20T03:49:44;99495.40;;;6.72
68588;BMP180;55560;52.174;20.996;2023-12-20T03:52:13;99497.60;;;6.70
68588;BMP180;55560;52.174;20.996;2023-12-20T03:54:41;99496.00;;;6.70
68588;BMP180;55560;52.174;20.996;2023-12-20T03:57:12;99503.40;;;6.70
68588;BMP180;55560;52.174;20.996;2023-12-20T03:59:41;99506.40;;;6.70
68588;BMP180;55560;52.174;20.996;2023-12-20T04:02:09;99503.40;;;6.70
68588;BMP180;55560;52.174;20.996;2023-12-20T04:04:37;99491.60;;;6.70
68588;BMP180;55560;52.174;20.996;2023-12-20T04:07:05;99488.20;;;6.70
68588;BMP180;55560;52.174;20.996;2023-12-20T04:09:33;99489.40;;;6.70
68588;BMP180;55560;52.174;20.996;2023-12-20T04:12:01;99498.80;;;6.70
68588;BMP180;55560;52.174;20.996;2023-12-20T04:14:29;99498.40;;;6.70
68588;BMP180;55560;52.174;20.996;2023-12-20T04:16:57;99494.60;;;6.70
68588;BMP180;55560;52.174;20.996;2023-12-20T04:19:24;99496.40;;;6.70
68588;BMP180;55560;52.174;20.996;2023-12-20T04:21:53;99505.40;;;6.70
68588;BMP180;55560;52.174;20.996;2023-12-20T04:24:21;99501.20;;;6.70
68588;BMP180;55560;52.174;20.996;2023-12-20T04:26:50;99495.40;;;6.70
68588;BMP180;55560;52.174;20.996;2023-12-20T04:29:18;99499.40;;;6.70
68588;BMP180;55560;52.174;20.996;2023-12-20T04:31:46;99502.80;;;6.70
68588;BMP180;55560;52.174;20.996;2023-12-20T04:34:14;99493.80;;;6.70
68588;BMP180;55560;52.174;20.996;2023-12-20T04:36:42;99490.80;;;6.70
68588;BMP180;55560;52.174;20.996;2023-12-20T04:39:12;99489.80;;;6.68
68588;BMP180;55560;52.174;20.996;2023-12-20T04:41:40;99492.40;;;6.70
68588;BMP180;55560;52.174;20.996;2023-12-20T04:44:08;99498.60;;;6.70
68588;BMP180;55560;52.174;20.996;2023-12-20T04:46:36;99499.20;;;6.70
68588;BMP180;55560;52.174;20.996;2023-12-20T04:49:05;99498.20;;;6.70
68588;BMP180;55560;52.174;20.996;2023-12-20T04:51:34;99494.20;;;6.70
68588;BMP180;55560;52.174;20.996;2023-12-20T04:54:02;99498.20;;;6.70
68588;BMP180;55560;52.174;20.996;2023-12-20T04:56:30;99499.00;;;6.70
68588;BMP180;55560;52.174;20.996;2023-12-20T04:58:58;99498.00;;;6.70
68588;BMP180;55560;52.174;20.996;2023-12-20T05:01:26;99499.20;;;6.70
68588;BMP180;55560;52.174;20.996;2023-12-20T05:03:54;99490.20;;;6.70
68588;BMP180;55560;52.174;20.996;2023-12-20T05:06:22;99487.80;;;6.70
68588;BMP180;55560;52.174;20.996;2023-12-20T05:08:50;99489.20;;;6.72
68588;BMP180;55560;52.174;20.996;2023-12-20T05:11:18;99486.80;;;6.80
68588;BMP180;55560;52.174;20.996;2023-12-20T05:13:46;99485.80;;;6.80
68588;BMP180;55560;52.174;20.996;2023-12-20T05:16:17;99483.60;;;6.80
68588;BMP180;55560;52.174;20.996;2023-12-20T05:18:49;99482.80;;;6.80
68588;BMP180;55560;52.174;20.996;2023-12-20T05:21:18;99481.00;;;6.80
68588;BMP180;55560;52.174;20.996;2023-12-20T05:23:46;99474.60;;;6.80
68588;BMP180;55560;52.174;20.996;2023-12-20T05:26:14;99476.60;;;6.80
68588;BMP180;55560;52.174;20.996;2023-12-20T05:28:42;99477.20;;;6.80
68588;BMP180;55560;52.174;20.996;2023-12-20T05:31:10;99472.40;;;6.80
68588;BMP180;55560;52.174;20.996;2023-12-20T05:33:38;99471.80;;;6.80
68588;BMP180;55560;52.174;20.996;2023-12-20T05:36:07;99468.40;;;6.80
68588;BMP180;55560;52.174;20.996;2023-12-20T05:38:39;99468.00;;;6.80
68588;BMP180;55560;52.174;20.996;2023-12-20T05:41:08;99473.60;;;6.80
68588;BMP180;55560;52.174;20.996;2023-12-20T05:43:36;99476.60;;;6.80
68588;BMP180;55560;52.174;20.996;2023-12-20T05:46:04;99481.80;;;6.80
68588;BMP180;55560;52.174;20.996;2023-12-20T05:48:32;99481.80;;;6.80
68588;BMP180;55560;52.174;20.996;2023-12-20T05:51:00;99474.80;;;6.80
68588;BMP180;55560;52.174;20.996;2023-12-20T05:53:28;99472.80;;;6.78
68588;BMP180;55560;52.174;20.996;2023-12-20T05:55:56;99476.00;;;6.74
68588;BMP180;55560;52.174;20.996;2023-12-20T05:58:24;99480.40;;;6.74
68588;BMP180;55560;52.174;20.996;2023-12-20T06:00:52;99472.80;;;6.70
68588;BMP180;55560;52.174;20.996;2023-12-20T06:03:21;99466.80;;;6.70
68588;BMP180;55560;52.174;20.996;2023-12-20T06:05:49;99466.80;;;6.70
68588;BMP180;55560;52.174;20.996;2023-12-20T06:08:18;99466.80;;;6.70
68588;BMP180;55560;52.174;20.996;2023-12-20T06:10:46;99469.60;;;6.70
68588;BMP180;55560;52.174;20.996;2023-12-20T06:13:14;99473.20;;;6.70
68588;BMP180;55560;52.174;20.996;2023-12-20T06:15:43;99471.40;;;6.70
68588;BMP180;55560;52.174;20.996;2023-12-20T06:18:11;99473.00;;;6.70
68588;BMP180;55560;52.174;20.996;2023-12-20T06:20:39;99477.20;;;6.70
68588;BMP180;55560;52.174;20.996;2023-12-20T06:23:07;99475.00;;;6.70
68588;BMP180;55560;52.174;20.996;2023-12-20T06:25:35;99476.00;;;6.60
68588;BMP180;55560;52.174;20.996;2023-12-20T06:28:03;99476.60;;;6.62
68588;BMP180;55560;52.174;20.996;2023-12-20T06:30:31;99470.80;;;6.60
68588;BMP180;55560;52.174;20.996;2023-12-20T06:33:00;99472.80;;;6.60
68588;BMP180;55560;52.174;20.996;2023-12-20T06:35:28;99477.00;;;6.60
68588;BMP180;55560;52.174;20.996;2023-12-20T06:37:58;99481.00;;;6.60
68588;BMP180;55560;52.174;20.996;2023-12-20T06:40:26;99481.40;;;6.60
68588;BMP180;55560;52.174;20.996;2023-12-20T06:42:55;99474.80;;;6.60
68588;BMP180;55560;52.174;20.996;2023-12-20T06:45:35;99473.60;;;6.60
68588;BMP180;55560;52.174;20.996;2023-12-20T06:48:04;99479.20;;;6.62
68588;BMP180;55560;52.174;20.996;2023-12-20T06:50:33;99477.40;;;6.60
68588;BMP180;55560;52.174;20.996;2023-12-20T06:53:01;99471.60;;;6.62
68588;BMP180;55560;52.174;20.996;2023-12-20T06:55:35;99478.20;;;6.60
68588;BMP180;55560;52.174;20.996;2023-12-20T06:58:05;99484.20;;;6.60
68588;BMP180;55560;52.174;20.996;2023-12-20T07:00:34;99480.60;;;6.60
68588;BMP180;55560;52.174;20.996;2023-12-20T07:03:04;99477.20;;;6.62
68588;BMP180;55560;52.174;20.996;2023-12-20T07:05:32;99477.00;;;6.64
68588;BMP180;55560;52.174;20.996;2023-12-20T07:08:00;99475.60;;;6.66
68588;BMP180;55560;52.174;20.996;2023-12-20T07:10:28;99473.40;;;6.66
68588;BMP180;55560;52.174;20.996;2023-12-20T07:12:56;99478.00;;;6.68
68588;BMP180;55560;52.174;20.996;2023-12-20T07:15:25;99479.60;;;6.70
68588;BMP180;55560;52.174;20.996;2023-12-20T07:17:53;99482.00;;;6.66
68588;BMP180;55560;52.174;20.996;2023-12-20T07:20:21;99473.80;;;6.62
68588;BMP180;55560;52.174;20.996;2023-12-20T07:22:49;99481.40;;;6.70
68588;BMP180;55560;52.174;20.996;2023-12-20T07:25:17;99483.80;;;6.68
68588;BMP180;55560;52.174;20.996;2023-12-20T07:27:45;99484.40;;;6.70
68588;BMP180;55560;52.174;20.996;2023-12-20T07:30:14;99482.00;;;6.70
68588;BMP180;55560;52.174;20.996;2023-12-20T07:32:42;99487.40;;;6.66
68588;BMP180;55560;52.174;20.996;2023-12-20T07:35:11;99482.00;;;6.64
68588;BMP180;55560;52.174;20.996;2023-12-20T07:37:39;99481.80;;;6.64
68588;BMP180;55560;52.174;20.996;2023-12-20T07:40:08;99481.00;;;6.60
68588;BMP180;55560;52.174;20.996;2023-12-20T07:42:36;99483.40;;;6.60
68588;BMP180;55560;52.174;20.996;2023-12-20T07:45:04;99485.00;;;6.60
68588;BMP180;55560;52.174;20.996;2023-12-20T07:47:33;99482.60;;;6.60
68588;BMP180;55560;52.174;20.996;2023-12-20T07:50:01;99477.40;;;6.60
68588;BMP180;55560;52.174;20.996;2023-12-20T07:52:30;99478.40;;;6.60
68588;BMP180;55560;52.174;20.996;2023-12-20T07:54:59;99478.80;;;6.70
68588;BMP180;55560;52.174;20.996;2023-12-20T07:57:30;99477.80;;;6.70
68588;BMP180;55560;52.174;20.996;2023-12-20T07:59:58;99478.40;;;6.64
68588;BMP180;55560;52.174;20.996;2023-12-20T08:02:26;99477.60;;;6.60
68588;BMP180;55560;52.174;20.996;2023-12-20T08:04:55;99477.00;;;6.60
68588;BMP180;55560;52.174;20.996;2023-12-20T08:07:23;99480.80;;;6.60
68588;BMP180;55560;52.174;20.996;2023-12-20T08:09:52;99478.60;;;6.60
68588;BMP180;55560;52.174;20.996;2023-12-20T08:12:20;99481.00;;;6.60
68588;BMP180;55560;52.174;20.996;2023-12-20T08:14:48;99477.40;;;6.60
68588;BMP180;55560;52.174;20.996;2023-12-20T08:17:16;99477.40;;;6.60
68588;BMP180;55560;52.174;20.996;2023-12-20T08:19:46;99478.60;;;6.60
68588;BMP180;55560;52.174;20.996;2023-12-20T08:22:14;99470.20;;;6.60
68588;BMP180;55560;52.174;20.996;2023-12-20T08:24:42;99472.40;;;6.58
68588;BMP180;55560;52.174;20.996;2023-12-20T08:27:10;99471.80;;;6.60
68588;BMP180;55560;52.174;20.996;2023-12-20T08:29:38;99474.80;;;6.54
68588;BMP180;55560;52.174;20.996;2023-12-20T08:32:06;99471.20;;;6.54
68588;BMP180;55560;52.174;20.996;2023-12-20T08:34:34;99468.40;;;6.50
68588;BMP180;55560;52.174;20.996;2023-12-20T08:37:02;99470.80;;;6.50
68588;BMP180;55560;52.174;20.996;2023-12-20T08:39:30;99473.80;;;6.50
68588;BMP180;55560;52.174;20.996;2023-12-20T08:42:01;99471.60;;;6.50
68588;BMP180;55560;52.174;20.996;2023-12-20T08:44:29;99476.60;;;6.50
68588;BMP180;55560;52.174;20.996;2023-12-20T08:46:58;99478.00;;;6.50
68588;BMP180;55560;52.174;20.996;2023-12-20T08:49:26;99477.80;;;6.58
68588;BMP180;55560;52.174;20.996;2023-12-20T08:51:56;99477.80;;;6.56
68588;BMP180;55560;52.174;20.996;2023-12-20T08:54:24;99473.60;;;6.60
68588;BMP180;55560;52.174;20.996;2023-12-20T08:56:52;99470.80;;;6.60
68588;BMP180;55560;52.174;20.996;2023-12-20T08:59:20;99469.60;;;6.60
68588;BMP180;55560;52.174;20.996;2023-12-20T09:01:48;99468.00;;;6.60
68588;BMP180;55560;52.174;20.996;2023-12-20T09:04:22;99469.80;;;6.60
68588;BMP180;55560;52.174;20.996;2023-12-20T09:06:50;99462.60;;;6.60
68588;BMP180;55560;52.174;20.996;2023-12-20T09:09:18;99460.40;;;6.60
68588;BMP180;55560;52.174;20.996;2023-12-20T09:11:46;99460.60;;;6.66
68588;BMP180;55560;52.174;20.996;2023-12-20T09:14:16;99456.40;;;6.64
68588;BMP180;55560;52.174;20.996;2023-12-20T09:16:44;99459.80;;;6.68
68588;BMP180;55560;52.174;20.996;2023-12-20T09:19:12;99455.00;;;6.68
68588;BMP180;55560;52.174;20.996;2023-12-20T09:21:40;99448.40;;;6.70
68588;BMP180;55560;52.174;20.996;2023-12-20T09:24:09;99447.20;;;6.70
68588;BMP180;55560;52.174;20.996;2023-12-20T09:26:37;99443.60;;;6.70
68588;BMP180;55560;52.174;20.996;2023-12-20T09:29:05;99433.60;;;6.70
68588;BMP180;55560;52.174;20.996;2023-12-20T09:31:36;99434.80;;;6.70
68588;BMP180;55560;52.174;20.996;2023-12-20T09:34:04;99430.80;;;6.70
68588;BMP180;55560;52.174;20.996;2023-12-20T09:36:33;99426.40;;;6.70
68588;BMP180;55560;52.174;20.996;2023-12-20T09:39:03;99427.40;;;6.70
68588;BMP180;55560;52.174;20.996;2023-12-20T09:41:36;99423.20;;;6.70
68588;BMP180;55560;52.174;20.996;2023-12-20T09:44:07;99422.40;;;6.70
68588;BMP180;55560;52.174;20.996;2023-12-20T09:46:37;99425.40;;;6.70
68588;BMP180;55560;52.174;20.996;2023-12-20T09:49:07;99424.20;;;6.70
68588;BMP180;55560;52.174;20.996;2023-12-20T09:51:36;99415.80;;;6.70
68588;BMP180;55560;52.174;20.996;2023-12-20T09:54:04;99416.80;;;6.70
68588;BMP180;55560;52.174;20.996;2023-12-20T09:56:33;99419.40;;;6.70
68588;BMP180;55560;52.174;20.996;2023-12-20T09:59:01;99419.00;;;6.70
68588;BMP180;55560;52.174;20.996;2023-12-20T10:01:30;99415.00;;;6.70
68588;BMP180;55560;52.174;20.996;2023-12-20T10:04:00;99411.40;;;6.70
68588;BMP180;55560;52.174;20.996;2023-12-20T10:06:29;99409.60;;;6.70
68588;BMP180;55560;52.174;20.996;2023-12-20T10:08:57;99409.60;;;6.70
68588;BMP180;55560;52.174;20.996;2023-12-20T10:11:26;99405.20;;;6.70
68588;BMP180;55560;52.174;20.996;2023-12-20T10:14:01;99406.60;;;6.70
68588;BMP180;55560;52.174;20.996;2023-12-20T10:16:30;99412.80;;;6.70
68588;BMP180;55560;52.174;20.996;2023-12-20T10:18:58;99416.20;;;6.70
68588;BMP180;55560;52.174;20.996;2023-12-20T10:21:27;99411.20;;;6.70
68588;BMP180;55560;52.174;20.996;2023-12-20T10:23:57;99409.40;;;6.70
68588;BMP180;55560;52.174;20.996;2023-12-20T10:26:26;99408.20;;;6.70
68588;BMP180;55560;52.174;20.996;2023-12-20T10:29:00;99406.60;;;6.70
68588;BMP180;55560;52.174;20.996;2023-12-20T10:31:34;99400.00;;;6.70
68588;BMP180;55560;52.174;20.996;2023-12-20T10:34:02;99397.00;;;6.70
68588;BMP180;55560;52.174;20.996;2023-12-20T10:36:33;99389.40;;;6.70
68588;BMP180;55560;52.174;20.996;2023-12-20T10:39:01;99387.00;;;6.70
68588;BMP180;55560;52.174;20.996;2023-12-20T10:41:32;99392.20;;;6.70
68588;BMP180;55560;52.174;20.996;2023-12-20T10:44:03;99387.60;;;6.70
68588;BMP180;55560;52.174;20.996;2023-12-20T10:46:34;99388.40;;;6.70
68588;BMP180;55560;52.174;20.996;2023-12-20T10:49:03;99389.80;;;6.70
68588;BMP180;55560;52.174;20.996;2023-12-20T10:51:33;99384.20;;;6.70
68588;BMP180;55560;52.174;20.996;2023-12-20T10:54:03;99385.80;;;6.70
68588;BMP180;55560;52.174;20.996;2023-12-20T10:56:32;99383.40;;;6.70
68588;BMP180;55560;52.174;20.996;2023-12-20T10:59:04;99385.80;;;6.70
68588;BMP180;55560;52.174;20.996;2023-12-20T11:01:35;99380.80;;;6.70
68588;BMP180;55560;52.174;20.996;2023-12-20T11:04:15;99380.80;;;6.70
68588;BMP180;55560;52.174;20.996;2023-12-20T11:07:10;99374.40;;;6.70
68588;BMP180;55560;52.174;20.996;2023-12-20T11:09:45;99369.80;;;6.70
68588;BMP180;55560;52.174;20.996;2023-12-20T11:12:25;99364.40;;;6.70
68588;BMP180;55560;52.174;20.996;2023-12-20T11:14:58;99362.80;;;6.70
68588;BMP180;55560;52.174;20.996;2023-12-20T11:17:32;99353.60;;;6.70
68588;BMP180;55560;52.174;20.996;2023-12-20T11:22:32;99345.20;;;6.70
68588;BMP180;55560;52.174;20.996;2023-12-20T11:25:10;99342.80;;;6.70
68588;BMP180;55560;52.174;20.996;2023-12-20T11:27:42;99341.00;;;6.70
68588;BMP180;55560;52.174;20.996;2023-12-20T11:30:14;99340.40;;;6.70
68588;BMP180;55560;52.174;20.996;2023-12-20T11:32:42;99334.80;;;6.70
68588;BMP180;55560;52.174;20.996;2023-12-20T11:37:40;99327.80;;;6.80
68588;BMP180;55560;52.174;20.996;2023-12-20T11:40:17;99330.20;;;6.80
68588;BMP180;55560;52.174;20.996;2023-12-20T11:42:51;99327.00;;;6.80
68588;BMP180;55560;52.174;20.996;2023-12-20T11:45:23;99328.00;;;6.80
68588;BMP180;55560;52.174;20.996;2023-12-20T11:47:56;99324.00;;;6.80
68588;BMP180;55560;52.174;20.996;2023-12-20T11:50:25;99321.40;;;6.80
68588;BMP180;55560;52.174;20.996;2023-12-20T11:52:56;99322.40;;;6.80
68588;BMP180;55560;52.174;20.996;2023-12-20T11:55:26;99319.80;;;6.80
68588;BMP180;55560;52.174;20.996;2023-12-20T11:57:54;99316.40;;;6.84
68588;BMP180;55560;52.174;20.996;2023-12-20T12:00:22;99310.40;;;6.80
68588;BMP180;55560;52.174;20.996;2023-12-20T12:02:58;99309.20;;;6.80
68588;BMP180;55560;52.174;20.996;2023-12-20T12:05:27;99303.20;;;6.80
68588;BMP180;55560;52.174;20.996;2023-12-20T12:07:55;99298.20;;;6.80
68588;BMP180;55560;52.174;20.996;2023-12-20T12:10:23;99296.60;;;6.80
68588;BMP180;55560;52.174;20.996;2023-12-20T12:12:51;99300.80;;;6.80
68588;BMP180;55560;52.174;20.996;2023-12-20T12:15:22;99301.40;;;6.70
68588;BMP180;55560;52.174;20.996;2023-12-20T12:17:56;99300.00;;;6.70
68588;BMP180;55560;52.174;20.996;2023-12-20T12:20:25;99301.00;;;6.70
68588;BMP180;55560;52.174;20.996;2023-12-20T12:23:05;99297.20;;;6.68
68588;BMP180;55560;52.174;20.996;2023-12-20T12:25:37;99293.80;;;6.70
68588;BMP180;55560;52.174;20.996;2023-12-20T12:28:11;99288.40;;;6.60
68588;BMP180;55560;52.174;20.996;2023-12-20T12:30:39;99288.20;;;6.60
68588;BMP180;55560;52.174;20.996;2023-12-20T12:33:20;99286.80;;;6.60
68588;BMP180;55560;52.174;20.996;2023-12-20T12:35:48;99284.00;;;6.60
68588;BMP180;55560;52.174;20.996;2023-12-20T12:38:16;99282.20;;;6.60
68588;BMP180;55560;52.174;20.996;2023-12-20T12:40:48;99275.40;;;6.56
68588;BMP180;55560;52.174;20.996;2023-12-20T12:43:17;99280.20;;;6.50
68588;BMP180;55560;52.174;20.996;2023-12-20T12:45:45;99279.60;;;6.50
68588;BMP180;55560;52.174;20.996;2023-12-20T12:48:13;99275.80;;;6.50
68588;BMP180;55560;52.174;20.996;2023-12-20T12:50:42;99267.60;;;6.50
68588;BMP180;55560;52.174;20.996;2023-12-20T12:53:09;99279.40;;;6.50
68588;BMP180;55560;52.174;20.996;2023-12-20T12:55:37;99287.20;;;6.50
68588;BMP180;55560;52.174;20.996;2023-12-20T12:58:06;99280.20;;;6.50
68588;BMP180;55560;52.174;20.996;2023-12-20T13:00:34;99278.80;;;6.46
68588;BMP180;55560;52.174;20.996;2023-12-20T13:03:02;99282.20;;;6.48
68588;BMP180;55560;52.174;20.996;2023-12-20T13:05:31;99281.80;;;6.50
68588;BMP180;55560;52.174;20.996;2023-12-20T13:08:04;99276.60;;;6.50
68588;BMP180;55560;52.174;20.996;2023-12-20T13:10:33;99274.20;;;6.50
68588;BMP180;55560;52.174;20.996;2023-12-20T13:13:01;99272.80;;;6.50
68588;BMP180;55560;52.174;20.996;2023-12-20T13:15:29;99272.20;;;6.50
68588;BMP180;55560;52.174;20.996;2023-12-20T13:17:58;99273.40;;;6.50
68588;BMP180;55560;52.174;20.996;2023-12-20T13:20:26;99275.80;;;6.50
68588;BMP180;55560;52.174;20.996;2023-12-20T13:22:57;99280.40;;;6.50
68588;BMP180;55560;52.174;20.996;2023-12-20T13:25:25;99277.00;;;6.50
68588;BMP180;55560;52.174;20.996;2023-12-20T13:27:53;99277.80;;;6.50
68588;BMP180;55560;52.174;20.996;2023-12-20T13:30:21;99271.60;;;6.50
68588;BMP180;55560;52.174;20.996;2023-12-20T13:32:49;99272.40;;;6.50
68588;BMP180;55560;52.174;20.996;2023-12-20T13:35:18;99264.80;;;6.60
68588;BMP180;55560;52.174;20.996;2023-12-20T13:37:46;99263.60;;;6.60
68588;BMP180;55560;52.174;20.996;2023-12-20T13:40:15;99265.00;;;6.60
68588;BMP180;55560;52.174;20.996;2023-12-20T13:42:43;99268.80;;;6.60
68588;BMP180;55560;52.174;20.996;2023-12-20T13:45:11;99268.00;;;6.60
68588;BMP180;55560;52.174;20.996;2023-12-20T13:47:39;99271.20;;;6.60
68588;BMP180;55560;52.174;20.996;2023-12-20T13:50:07;99267.60;;;6.60
68588;BMP180;55560;52.174;20.996;2023-12-20T13:52:35;99260.40;;;6.64
68588;BMP180;55560;52.174;20.996;2023-12-20T13:55:07;99260.80;;;6.66
68588;BMP180;55560;52.174;20.996;2023-12-20T13:57:36;99257.40;;;6.60
68588;BMP180;55560;52.174;20.996;2023-12-20T14:00:23;99257.20;;;6.60
68588;BMP180;55560;52.174;20.996;2023-12-20T14:02:51;99260.20;;;6.60
68588;BMP180;55560;52.174;20.996;2023-12-20T14:05:19;99261.20;;;6.60
68588;BMP180;55560;52.174;20.996;2023-12-20T14:07:50;99259.00;;;6.60
68588;BMP180;55560;52.174;20.996;2023-12-20T14:10:18;99250.60;;;6.60
68588;BMP180;55560;52.174;20.996;2023-12-20T14:12:46;99256.80;;;6.52
68588;BMP180;55560;52.174;20.996;2023-12-20T14:15:14;99262.80;;;6.52
68588;BMP180;55560;52.174;20.996;2023-12-20T14:17:42;99260.60;;;6.50
68588;BMP180;55560;52.174;20.996;2023-12-20T14:20:12;99259.80;;;6.50
68588;BMP180;55560;52.174;20.996;2023-12-20T14:22:44;99268.60;;;6.50
68588;BMP180;55560;52.174;20.996;2023-12-20T14:25:14;99270.40;;;6.54